sensor_id;sensor_type;location;lat;lon;timestamp;P1;durP1;ratioP1;P2;durP2;ratioP2
48613;SDS011;34408;51.426;5.444;2022-09-03T00:00:55;24.25;;;12.23;;
48613;SDS011;34408;51.426;5.444;2022-09-03T00:03:28;21.83;;;12.40;;
48613;SDS011;34408;51.426;5.444;2022-09-03T00:06:04;27.83;;;12.68;;
48613;SDS011;34408;51.426;5.444;2022-09-03T00:08:37;29.48;;;12.10;;
48613;SDS011;34408;51.426;5.444;2022-09-03T00:11:11;23.95;;;11.07;;
48613;SDS011;34408;51.426;5.444;2022-09-03T00:13:44;29.58;;;12.93;;
48613;SDS011;34408;51.426;5.444;2022-09-03T00:16:19;25.35;;;12.85;;
48613;SDS011;34408;51.426;5.444;2022-09-03T00:18:51;34.80;;;13.75;;
48613;SDS011;34408;51.426;5.444;2022-09-03T00:21:28;24.65;;;12.63;;
48613;SDS011;34408;51.426;5.444;2022-09-03T00:24:03;23.85;;;12.73;;
48613;SDS011;34408;51.426;5.444;2022-09-03T00:26:41;27.92;;;12.75;;
48613;SDS011;34408;51.426;5.444;2022-09-03T00:29:14;25.98;;;11.77;;
48613;SDS011;34408;51.426;5.444;2022-09-03T00:31:46;23.83;;;11.02;;
48613;SDS011;34408;51.426;5.444;2022-09-03T00:34:18;28.77;;;13.25;;
48613;SDS011;34408;51.426;5.444;2022-09-03T00:36:50;25.70;;;12.13;;
48613;SDS011;34408;51.426;5.444;2022-09-03T00:39:19;29.08;;;13.73;;
48613;SDS011;34408;51.426;5.444;2022-09-03T00:41:53;28.83;;;13.35;;
48613;SDS011;34408;51.426;5.444;2022-09-03T00:44:43;23.75;;;12.15;;
48613;SDS011;34408;51.426;5.444;2022-09-03T00:47:31;27.02;;;12.48;;
48613;SDS011;34408;51.426;5.444;2022-09-03T00:50:08;27.05;;;12.93;;
48613;SDS011;34408;51.426;5.444;2022-09-03T00:52:43;26.73;;;12.50;;
48613;SDS011;34408;51.426;5.444;2022-09-03T00:55:21;25.92;;;12.52;;
48613;SDS011;34408;51.426;5.444;2022-09-03T00:58:02;22.05;;;10.85;;
48613;SDS011;34408;51.426;5.444;2022-09-03T01:00:40;28.38;;;12.77;;
48613;SDS011;34408;51.426;5.444;2022-09-03T01:03:13;21.88;;;10.93;;
48613;SDS011;34408;51.426;5.444;2022-09-03T01:06:00;26.35;;;12.07;;
48613;SDS011;34408;51.426;5.444;2022-09-03T01:08:42;26.83;;;12.10;;
48613;SDS011;34408;51.426;5.444;2022-09-03T01:11:23;23.92;;;11.55;;
48613;SDS011;34408;51.426;5.444;2022-09-03T01:14:00;21.85;;;11.48;;
48613;SDS011;34408;51.426;5.444;2022-09-03T01:16:36;21.20;;;11.63;;
48613;SDS011;34408;51.426;5.444;2022-09-03T01:19:14;27.50;;;12.30;;
48613;SDS011;34408;51.426;5.444;2022-09-03T01:22:06;21.27;;;10.68;;
48613;SDS011;34408;51.426;5.444;2022-09-03T01:25:02;27.25;;;11.98;;
48613;SDS011;34408;51.426;5.444;2022-09-03T01:27:43;31.38;;;11.50;;
48613;SDS011;34408;51.426;5.444;2022-09-03T01:30:20;21.85;;;11.02;;
48613;SDS011;34408;51.426;5.444;2022-09-03T01:32:51;24.20;;;10.60;;
48613;SDS011;34408;51.426;5.444;2022-09-03T01:35:26;26.15;;;10.55;;
48613;SDS011;34408;51.426;5.444;2022-09-03T01:38:08;22.70;;;10.55;;
48613;SDS011;34408;51.426;5.444;2022-09-03T01:40:48;23.58;;;10.85;;
48613;SDS011;34408;51.426;5.444;2022-09-03T01:46:06;21.13;;;10.32;;
48613;SDS011;34408;51.426;5.444;2022-09-03T01:48:43;21.17;;;10.13;;
48613;SDS011;34408;51.426;5.444;2022-09-03T01:51:17;21.42;;;10.48;;
48613;SDS011;34408;51.426;5.444;2022-09-03T01:56:50;25.23;;;11.23;;
48613;SDS011;34408;51.426;5.444;2022-09-03T01:59:56;17.95;;;9.48;;
48613;SDS011;34408;51.426;5.444;2022-09-03T02:02:29;18.50;;;9.52;;
48613;SDS011;34408;51.426;5.444;2022-09-03T02:04:59;19.83;;;9.57;;
48613;SDS011;34408;51.426;5.444;2022-09-03T02:07:29;18.10;;;8.82;;
48613;SDS011;34408;51.426;5.444;2022-09-03T02:10:00;21.02;;;9.90;;
48613;SDS011;34408;51.426;5.444;2022-09-03T02:12:29;19.02;;;9.02;;
48613;SDS011;34408;51.426;5.444;2022-09-03T02:14:59;16.13;;;8.50;;
48613;SDS011;34408;51.426;5.444;2022-09-03T02:17:31;21.35;;;9.13;;
48613;SDS011;34408;51.426;5.444;2022-09-03T02:20:01;20.40;;;10.07;;
48613;SDS011;34408;51.426;5.444;2022-09-03T02:22:32;14.00;;;7.38;;
48613;SDS011;34408;51.426;5.444;2022-09-03T02:25:01;17.48;;;7.95;;
48613;SDS011;34408;51.426;5.444;2022-09-03T02:27:28;16.50;;;7.90;;
48613;SDS011;34408;51.426;5.444;2022-09-03T02:29:57;17.00;;;8.27;;
48613;SDS011;34408;51.426;5.444;2022-09-03T02:32:26;17.55;;;7.57;;
48613;SDS011;34408;51.426;5.444;2022-09-03T02:34:55;15.52;;;7.28;;
48613;SDS011;34408;51.426;5.444;2022-09-03T02:37:24;16.17;;;7.80;;
48613;SDS011;34408;51.426;5.444;2022-09-03T02:39:52;15.23;;;7.05;;
48613;SDS011;34408;51.426;5.444;2022-09-03T02:42:20;13.57;;;6.55;;
48613;SDS011;34408;51.426;5.444;2022-09-03T02:44:49;14.82;;;6.47;;
48613;SDS011;34408;51.426;5.444;2022-09-03T02:47:20;14.07;;;5.72;;
48613;SDS011;34408;51.426;5.444;2022-09-03T02:49:49;13.88;;;6.35;;
48613;SDS011;34408;51.426;5.444;2022-09-03T02:52:18;14.43;;;6.80;;
48613;SDS011;34408;51.426;5.444;2022-09-03T02:54:46;12.20;;;5.47;;
48613;SDS011;34408;51.426;5.444;2022-09-03T02:57:14;14.38;;;6.40;;
48613;SDS011;34408;51.426;5.444;2022-09-03T02:59:53;15.52;;;6.45;;
48613;SDS011;34408;51.426;5.444;2022-09-03T03:02:21;9.23;;;6.15;;
48613;SDS011;34408;51.426;5.444;2022-09-03T03:04:48;11.57;;;4.95;;
48613;SDS011;34408;51.426;5.444;2022-09-03T03:07:16;13.13;;;5.28;;
48613;SDS011;34408;51.426;5.444;2022-09-03T03:09:45;11.80;;;5.60;;
48613;SDS011;34408;51.426;5.444;2022-09-03T03:12:13;7.75;;;5.40;;
48613;SDS011;34408;51.426;5.444;2022-09-03T03:14:42;11.65;;;5.13;;
48613;SDS011;34408;51.426;5.444;2022-09-03T03:17:10;9.23;;;5.22;;
48613;SDS011;34408;51.426;5.444;2022-09-03T03:19:37;10.65;;;5.43;;
48613;SDS011;34408;51.426;5.444;2022-09-03T03:22:05;7.63;;;4.80;;
48613;SDS011;34408;51.426;5.444;2022-09-03T03:24:33;12.93;;;5.50;;
48613;SDS011;34408;51.426;5.444;2022-09-03T03:27:03;10.23;;;5.10;;
48613;SDS011;34408;51.426;5.444;2022-09-03T03:29:33;8.73;;;4.63;;
48613;SDS011;34408;51.426;5.444;2022-09-03T03:32:01;11.20;;;5.13;;
48613;SDS011;34408;51.426;5.444;2022-09-03T03:34:29;10.30;;;5.60;;
48613;SDS011;34408;51.426;5.444;2022-09-03T03:36:57;9.82;;;4.57;;
48613;SDS011;34408;51.426;5.444;2022-09-03T03:39:25;9.63;;;4.28;;
48613;SDS011;34408;51.426;5.444;2022-09-03T03:41:53;10.00;;;4.47;;
48613;SDS011;34408;51.426;5.444;2022-09-03T03:44:23;11.90;;;4.95;;
48613;SDS011;34408;51.426;5.444;2022-09-03T03:46:51;10.85;;;4.13;;
48613;SDS011;34408;51.426;5.444;2022-09-03T03:49:19;8.73;;;4.13;;
48613;SDS011;34408;51.426;5.444;2022-09-03T03:51:46;9.32;;;4.45;;
48613;SDS011;34408;51.426;5.444;2022-09-03T03:54:14;8.77;;;4.15;;
48613;SDS011;34408;51.426;5.444;2022-09-03T03:56:43;8.77;;;4.20;;
48613;SDS011;34408;51.426;5.444;2022-09-03T03:59:20;6.70;;;3.47;;
48613;SDS011;34408;51.426;5.444;2022-09-03T04:01:49;10.18;;;3.88;;
48613;SDS011;34408;51.426;5.444;2022-09-03T04:04:17;8.18;;;4.30;;
48613;SDS011;34408;51.426;5.444;2022-09-03T04:06:45;11.95;;;4.57;;
48613;SDS011;34408;51.426;5.444;2022-09-03T04:09:13;9.00;;;3.88;;
48613;SDS011;34408;51.426;5.444;2022-09-03T04:11:40;10.07;;;3.42;;
48613;SDS011;34408;51.426;5.444;2022-09-03T04:14:08;9.43;;;3.90;;
48613;SDS011;34408;51.426;5.444;2022-09-03T04:16:36;7.95;;;3.63;;
48613;SDS011;34408;51.426;5.444;2022-09-03T04:19:05;7.30;;;3.80;;
48613;SDS011;34408;51.426;5.444;2022-09-03T04:21:33;11.05;;;3.95;;
48613;SDS011;34408;51.426;5.444;2022-09-03T04:24:02;7.18;;;3.70;;
48613;SDS011;34408;51.426;5.444;2022-09-03T04:26:31;8.38;;;4.03;;
48613;SDS011;34408;51.426;5.444;2022-09-03T04:29:01;7.13;;;3.80;;
48613;SDS011;34408;51.426;5.444;2022-09-03T04:31:30;8.05;;;3.45;;
48613;SDS011;34408;51.426;5.444;2022-09-03T04:33:58;6.63;;;2.83;;
48613;SDS011;34408;51.426;5.444;2022-09-03T04:36:29;7.05;;;3.05;;
48613;SDS011;34408;51.426;5.444;2022-09-03T04:38:57;9.20;;;3.30;;
48613;SDS011;34408;51.426;5.444;2022-09-03T04:41:27;10.15;;;2.75;;
48613;SDS011;34408;51.426;5.444;2022-09-03T04:43:58;4.50;;;2.65;;
48613;SDS011;34408;51.426;5.444;2022-09-03T04:46:27;5.90;;;3.20;;
48613;SDS011;34408;51.426;5.444;2022-09-03T04:48:59;4.63;;;2.42;;
48613;SDS011;34408;51.426;5.444;2022-09-03T04:51:28;5.63;;;2.88;;
48613;SDS011;34408;51.426;5.444;2022-09-03T04:53:57;6.80;;;3.90;;
48613;SDS011;34408;51.426;5.444;2022-09-03T04:56:27;8.00;;;3.40;;
48613;SDS011;34408;51.426;5.444;2022-09-03T04:58:57;8.35;;;3.60;;
48613;SDS011;34408;51.426;5.444;2022-09-03T05:01:27;7.53;;;3.22;;
48613;SDS011;34408;51.426;5.444;2022-09-03T05:03:57;6.88;;;3.17;;
48613;SDS011;34408;51.426;5.444;2022-09-03T05:06:25;6.43;;;3.45;;
48613;SDS011;34408;51.426;5.444;2022-09-03T05:08:56;11.52;;;3.80;;
48613;SDS011;34408;51.426;5.444;2022-09-03T05:11:24;5.38;;;3.13;;
48613;SDS011;34408;51.426;5.444;2022-09-03T05:13:54;7.32;;;3.17;;
48613;SDS011;34408;51.426;5.444;2022-09-03T05:16:24;8.52;;;3.97;;
48613;SDS011;34408;51.426;5.444;2022-09-03T05:18:53;9.45;;;3.47;;
48613;SDS011;34408;51.426;5.444;2022-09-03T05:21:24;5.68;;;3.45;;
48613;SDS011;34408;51.426;5.444;2022-09-03T05:23:53;8.07;;;4.28;;
48613;SDS011;34408;51.426;5.444;2022-09-03T05:26:22;10.15;;;3.97;;
48613;SDS011;34408;51.426;5.444;2022-09-03T05:28:52;9.63;;;4.38;;
48613;SDS011;34408;51.426;5.444;2022-09-03T05:31:21;8.45;;;4.15;;
48613;SDS011;34408;51.426;5.444;2022-09-03T05:33:52;10.23;;;4.25;;
48613;SDS011;34408;51.426;5.444;2022-09-03T05:36:23;8.77;;;4.05;;
48613;SDS011;34408;51.426;5.444;2022-09-03T05:38:52;13.90;;;4.95;;
48613;SDS011;34408;51.426;5.444;2022-09-03T05:41:21;8.30;;;4.70;;
48613;SDS011;34408;51.426;5.444;2022-09-03T05:43:50;7.70;;;3.90;;
48613;SDS011;34408;51.426;5.444;2022-09-03T05:46:21;6.78;;;4.10;;
48613;SDS011;34408;51.426;5.444;2022-09-03T05:48:56;8.65;;;5.10;;
48613;SDS011;34408;51.426;5.444;2022-09-03T05:51:25;10.90;;;4.35;;
48613;SDS011;34408;51.426;5.444;2022-09-03T05:53:53;10.05;;;4.32;;
48613;SDS011;34408;51.426;5.444;2022-09-03T05:56:23;8.35;;;4.20;;
48613;SDS011;34408;51.426;5.444;2022-09-03T05:58:53;7.68;;;3.78;;
48613;SDS011;34408;51.426;5.444;2022-09-03T06:01:23;8.10;;;3.65;;
48613;SDS011;34408;51.426;5.444;2022-09-03T06:03:52;9.57;;;4.10;;
48613;SDS011;34408;51.426;5.444;2022-09-03T06:06:21;8.57;;;4.38;;
48613;SDS011;34408;51.426;5.444;2022-09-03T06:08:51;6.05;;;3.70;;
48613;SDS011;34408;51.426;5.444;2022-09-03T06:11:20;10.65;;;4.50;;
48613;SDS011;34408;51.426;5.444;2022-09-03T06:13:53;8.70;;;3.72;;
48613;SDS011;34408;51.426;5.444;2022-09-03T06:16:21;9.30;;;4.10;;
48613;SDS011;34408;51.426;5.444;2022-09-03T06:18:57;10.63;;;4.60;;
48613;SDS011;34408;51.426;5.444;2022-09-03T06:21:25;9.27;;;4.13;;
48613;SDS011;34408;51.426;5.444;2022-09-03T06:23:53;10.07;;;4.30;;
48613;SDS011;34408;51.426;5.444;2022-09-03T06:26:25;9.20;;;4.10;;
48613;SDS011;34408;51.426;5.444;2022-09-03T06:28:56;6.60;;;3.95;;
48613;SDS011;34408;51.426;5.444;2022-09-03T06:31:25;8.52;;;3.92;;
48613;SDS011;34408;51.426;5.444;2022-09-03T06:33:53;9.02;;;3.35;;
48613;SDS011;34408;51.426;5.444;2022-09-03T06:36:27;4.95;;;3.20;;
48613;SDS011;34408;51.426;5.444;2022-09-03T06:38:55;9.68;;;3.30;;
48613;SDS011;34408;51.426;5.444;2022-09-03T06:41:25;6.65;;;3.55;;
48613;SDS011;34408;51.426;5.444;2022-09-03T06:43:59;5.97;;;3.45;;
48613;SDS011;34408;51.426;5.444;2022-09-03T06:46:29;5.57;;;2.97;;
48613;SDS011;34408;51.426;5.444;2022-09-03T06:48:58;5.28;;;2.95;;
48613;SDS011;34408;51.426;5.444;2022-09-03T06:51:26;5.78;;;2.97;;
48613;SDS011;34408;51.426;5.444;2022-09-03T06:53:58;5.70;;;2.67;;
48613;SDS011;34408;51.426;5.444;2022-09-03T06:56:26;5.00;;;2.67;;
48613;SDS011;34408;51.426;5.444;2022-09-03T06:58:55;5.65;;;2.88;;
48613;SDS011;34408;51.426;5.444;2022-09-03T07:01:25;5.15;;;2.58;;
48613;SDS011;34408;51.426;5.444;2022-09-03T07:03:57;6.00;;;2.97;;
48613;SDS011;34408;51.426;5.444;2022-09-03T07:06:27;4.70;;;2.33;;
48613;SDS011;34408;51.426;5.444;2022-09-03T07:08:57;3.78;;;2.30;;
48613;SDS011;34408;51.426;5.444;2022-09-03T07:11:26;6.65;;;2.20;;
48613;SDS011;34408;51.426;5.444;2022-09-03T07:13:58;4.07;;;2.22;;
48613;SDS011;34408;51.426;5.444;2022-09-03T07:16:28;4.45;;;2.33;;
48613;SDS011;34408;51.426;5.444;2022-09-03T07:18:57;3.65;;;2.10;;
48613;SDS011;34408;51.426;5.444;2022-09-03T07:21:26;10.68;;;2.45;;
48613;SDS011;34408;51.426;5.444;2022-09-03T07:23:55;5.13;;;1.83;;
48613;SDS011;34408;51.426;5.444;2022-09-03T07:26:24;4.57;;;2.15;;
48613;SDS011;34408;51.426;5.444;2022-09-03T07:28:53;3.60;;;2.05;;
48613;SDS011;34408;51.426;5.444;2022-09-03T07:31:22;4.47;;;1.95;;
48613;SDS011;34408;51.426;5.444;2022-09-03T07:33:53;2.15;;;1.60;;
48613;SDS011;34408;51.426;5.444;2022-09-03T07:36:22;5.50;;;1.58;;
48613;SDS011;34408;51.426;5.444;2022-09-03T07:38:53;3.60;;;2.03;;
48613;SDS011;34408;51.426;5.444;2022-09-03T07:41:22;5.55;;;2.45;;
48613;SDS011;34408;51.426;5.444;2022-09-03T07:43:54;4.65;;;2.20;;
48613;SDS011;34408;51.426;5.444;2022-09-03T07:46:23;2.22;;;1.52;;
48613;SDS011;34408;51.426;5.444;2022-09-03T07:48:55;3.38;;;1.60;;
48613;SDS011;34408;51.426;5.444;2022-09-03T07:51:24;2.83;;;1.52;;
48613;SDS011;34408;51.426;5.444;2022-09-03T07:53:54;2.90;;;1.77;;
48613;SDS011;34408;51.426;5.444;2022-09-03T07:56:23;4.15;;;2.33;;
48613;SDS011;34408;51.426;5.444;2022-09-03T07:58:52;3.38;;;1.70;;
48613;SDS011;34408;51.426;5.444;2022-09-03T08:01:21;5.95;;;2.22;;
48613;SDS011;34408;51.426;5.444;2022-09-03T08:03:50;4.63;;;1.48;;
48613;SDS011;34408;51.426;5.444;2022-09-03T08:06:21;3.63;;;1.95;;
48613;SDS011;34408;51.426;5.444;2022-09-03T08:08:53;2.92;;;1.73;;
48613;SDS011;34408;51.426;5.444;2022-09-03T08:11:28;3.35;;;2.13;;
48613;SDS011;34408;51.426;5.444;2022-09-03T08:13:57;3.30;;;1.45;;
48613;SDS011;34408;51.426;5.444;2022-09-03T08:16:28;2.17;;;1.55;;
48613;SDS011;34408;51.426;5.444;2022-09-03T08:18:57;3.78;;;1.85;;
48613;SDS011;34408;51.426;5.444;2022-09-03T08:21:27;2.47;;;1.50;;
48613;SDS011;34408;51.426;5.444;2022-09-03T08:23:55;5.25;;;2.00;;
48613;SDS011;34408;51.426;5.444;2022-09-03T08:26:28;3.67;;;1.50;;
48613;SDS011;34408;51.426;5.444;2022-09-03T08:28:57;4.43;;;1.40;;
48613;SDS011;34408;51.426;5.444;2022-09-03T08:31:25;3.05;;;1.38;;
48613;SDS011;34408;51.426;5.444;2022-09-03T08:33:55;5.03;;;1.40;;
48613;SDS011;34408;51.426;5.444;2022-09-03T08:36:24;4.35;;;1.35;;
48613;SDS011;34408;51.426;5.444;2022-09-03T08:38:54;3.47;;;1.30;;
48613;SDS011;34408;51.426;5.444;2022-09-03T08:41:27;4.15;;;1.63;;
48613;SDS011;34408;51.426;5.444;2022-09-03T08:44:13;3.13;;;1.40;;
48613;SDS011;34408;51.426;5.444;2022-09-03T08:46:50;4.43;;;1.42;;
48613;SDS011;34408;51.426;5.444;2022-09-03T08:49:23;2.15;;;1.60;;
48613;SDS011;34408;51.426;5.444;2022-09-03T08:51:55;4.25;;;1.30;;
48613;SDS011;34408;51.426;5.444;2022-09-03T08:54:30;5.95;;;1.70;;
48613;SDS011;34408;51.426;5.444;2022-09-03T08:56:59;3.05;;;1.42;;
48613;SDS011;34408;51.426;5.444;2022-09-03T08:59:29;5.00;;;1.45;;
48613;SDS011;34408;51.426;5.444;2022-09-03T09:02:00;5.70;;;1.20;;
48613;SDS011;34408;51.426;5.444;2022-09-03T09:04:48;2.58;;;1.42;;
48613;SDS011;34408;51.426;5.444;2022-09-03T09:07:25;2.90;;;1.50;;
48613;SDS011;34408;51.426;5.444;2022-09-03T09:09:59;3.10;;;1.50;;
48613;SDS011;34408;51.426;5.444;2022-09-03T09:12:38;2.75;;;1.50;;
48613;SDS011;34408;51.426;5.444;2022-09-03T09:15:16;3.42;;;1.77;;
48613;SDS011;34408;51.426;5.444;2022-09-03T09:17:57;4.93;;;1.35;;
48613;SDS011;34408;51.426;5.444;2022-09-03T09:20:34;2.92;;;1.23;;
48613;SDS011;34408;51.426;5.444;2022-09-03T09:23:09;8.93;;;1.73;;
48613;SDS011;34408;51.426;5.444;2022-09-03T09:25:44;4.90;;;1.40;;
48613;SDS011;34408;51.426;5.444;2022-09-03T09:28:16;2.65;;;1.58;;
48613;SDS011;34408;51.426;5.444;2022-09-03T09:30:46;2.17;;;1.33;;
48613;SDS011;34408;51.426;5.444;2022-09-03T09:33:16;4.18;;;1.40;;
48613;SDS011;34408;51.426;5.444;2022-09-03T09:35:45;4.57;;;1.45;;
48613;SDS011;34408;51.426;5.444;2022-09-03T09:38:14;3.08;;;1.45;;
48613;SDS011;34408;51.426;5.444;2022-09-03T09:40:43;3.65;;;1.58;;
48613;SDS011;34408;51.426;5.444;2022-09-03T09:43:12;3.42;;;1.40;;
48613;SDS011;34408;51.426;5.444;2022-09-03T09:45:42;1.60;;;1.27;;
48613;SDS011;34408;51.426;5.444;2022-09-03T09:48:19;2.80;;;1.30;;
48613;SDS011;34408;51.426;5.444;2022-09-03T09:51:02;1.25;;;1.00;;
48613;SDS011;34408;51.426;5.444;2022-09-03T09:53:30;3.17;;;1.30;;
48613;SDS011;34408;51.426;5.444;2022-09-03T09:55:59;5.18;;;1.50;;
48613;SDS011;34408;51.426;5.444;2022-09-03T09:58:29;3.25;;;1.50;;
48613;SDS011;34408;51.426;5.444;2022-09-03T10:01:00;3.53;;;1.60;;
48613;SDS011;34408;51.426;5.444;2022-09-03T10:03:30;2.17;;;1.20;;
48613;SDS011;34408;51.426;5.444;2022-09-03T10:06:02;4.15;;;1.40;;
48613;SDS011;34408;51.426;5.444;2022-09-03T10:08:46;3.38;;;1.30;;
48613;SDS011;34408;51.426;5.444;2022-09-03T10:11:16;4.15;;;1.40;;
48613;SDS011;34408;51.426;5.444;2022-09-03T10:13:46;3.70;;;1.38;;
48613;SDS011;34408;51.426;5.444;2022-09-03T10:16:19;2.83;;;1.55;;
48613;SDS011;34408;51.426;5.444;2022-09-03T10:18:56;3.03;;;1.35;;
48613;SDS011;34408;51.426;5.444;2022-09-03T10:21:33;3.95;;;1.52;;
48613;SDS011;34408;51.426;5.444;2022-09-03T10:24:12;2.92;;;1.42;;
48613;SDS011;34408;51.426;5.444;2022-09-03T10:26:57;1.77;;;1.23;;
48613;SDS011;34408;51.426;5.444;2022-09-03T10:29:25;5.40;;;1.70;;
48613;SDS011;34408;51.426;5.444;2022-09-03T10:32:00;2.25;;;1.40;;
48613;SDS011;34408;51.426;5.444;2022-09-03T10:34:37;2.85;;;1.33;;
48613;SDS011;34408;51.426;5.444;2022-09-03T10:37:17;3.20;;;1.50;;
48613;SDS011;34408;51.426;5.444;2022-09-03T10:40:03;4.22;;;1.58;;
48613;SDS011;34408;51.426;5.444;2022-09-03T10:42:41;3.45;;;1.30;;
48613;SDS011;34408;51.426;5.444;2022-09-03T10:45:16;2.92;;;1.67;;
48613;SDS011;34408;51.426;5.444;2022-09-03T10:47:56;4.50;;;1.50;;
48613;SDS011;34408;51.426;5.444;2022-09-03T10:50:37;1.88;;;1.45;;
48613;SDS011;34408;51.426;5.444;2022-09-03T10:53:12;2.90;;;1.63;;
48613;SDS011;34408;51.426;5.444;2022-09-03T10:55:53;3.15;;;1.65;;
48613;SDS011;34408;51.426;5.444;2022-09-03T11:01:23;2.50;;;1.50;;
48613;SDS011;34408;51.426;5.444;2022-09-03T11:03:58;2.88;;;1.38;;
48613;SDS011;34408;51.426;5.444;2022-09-03T11:06:41;3.15;;;2.00;;
48613;SDS011;34408;51.426;5.444;2022-09-03T11:09:15;2.90;;;1.93;;
48613;SDS011;34408;51.426;5.444;2022-09-03T11:11:48;2.45;;;1.63;;
48613;SDS011;34408;51.426;5.444;2022-09-03T11:14:23;2.97;;;1.40;;
48613;SDS011;34408;51.426;5.444;2022-09-03T11:17:01;2.25;;;1.30;;
48613;SDS011;34408;51.426;5.444;2022-09-03T11:19:33;2.63;;;1.50;;
48613;SDS011;34408;51.426;5.444;2022-09-03T11:22:03;2.33;;;1.40;;
48613;SDS011;34408;51.426;5.444;2022-09-03T11:24:33;2.25;;;1.33;;
48613;SDS011;34408;51.426;5.444;2022-09-03T11:27:12;2.42;;;1.20;;
48613;SDS011;34408;51.426;5.444;2022-09-03T11:29:51;2.15;;;1.35;;
48613;SDS011;34408;51.426;5.444;2022-09-03T11:32:28;2.78;;;1.20;;
48613;SDS011;34408;51.426;5.444;2022-09-03T11:35:12;3.63;;;1.17;;
48613;SDS011;34408;51.426;5.444;2022-09-03T11:37:45;2.17;;;1.20;;
48613;SDS011;34408;51.426;5.444;2022-09-03T11:40:19;4.32;;;1.30;;
48613;SDS011;34408;51.426;5.444;2022-09-03T11:42:52;1.75;;;1.15;;
48613;SDS011;34408;51.426;5.444;2022-09-03T11:45:22;5.65;;;1.50;;
48613;SDS011;34408;51.426;5.444;2022-09-03T11:48:01;2.97;;;1.27;;
48613;SDS011;34408;51.426;5.444;2022-09-03T11:50:29;4.93;;;1.23;;
48613;SDS011;34408;51.426;5.444;2022-09-03T11:53:06;3.78;;;1.30;;
48613;SDS011;34408;51.426;5.444;2022-09-03T11:55:46;4.35;;;1.42;;
48613;SDS011;34408;51.426;5.444;2022-09-03T11:58:22;6.72;;;1.38;;
48613;SDS011;34408;51.426;5.444;2022-09-03T12:00:54;3.75;;;1.50;;
48613;SDS011;34408;51.426;5.444;2022-09-03T12:03:23;8.23;;;1.73;;
48613;SDS011;34408;51.426;5.444;2022-09-03T12:06:06;4.15;;;1.35;;
48613;SDS011;34408;51.426;5.444;2022-09-03T12:08:55;4.07;;;1.40;;
48613;SDS011;34408;51.426;5.444;2022-09-03T12:11:39;4.40;;;1.27;;
48613;SDS011;34408;51.426;5.444;2022-09-03T12:14:17;4.60;;;1.85;;
48613;SDS011;34408;51.426;5.444;2022-09-03T12:16:53;2.95;;;1.42;;
48613;SDS011;34408;51.426;5.444;2022-09-03T12:19:35;3.83;;;1.67;;
48613;SDS011;34408;51.426;5.444;2022-09-03T12:22:11;3.13;;;1.23;;
48613;SDS011;34408;51.426;5.444;2022-09-03T12:24:41;2.63;;;1.58;;
48613;SDS011;34408;51.426;5.444;2022-09-03T12:27:09;4.72;;;2.13;;
48613;SDS011;34408;51.426;5.444;2022-09-03T12:29:49;4.65;;;2.03;;
48613;SDS011;34408;51.426;5.444;2022-09-03T12:32:22;6.55;;;1.30;;
48613;SDS011;34408;51.426;5.444;2022-09-03T12:34:51;2.35;;;1.40;;
48613;SDS011;34408;51.426;5.444;2022-09-03T12:37:21;2.85;;;1.30;;
48613;SDS011;34408;51.426;5.444;2022-09-03T12:40:17;3.90;;;2.25;;
48613;SDS011;34408;51.426;5.444;2022-09-03T12:42:47;3.42;;;1.50;;
48613;SDS011;34408;51.426;5.444;2022-09-03T12:45:17;2.10;;;1.20;;
48613;SDS011;34408;51.426;5.444;2022-09-03T12:47:47;5.88;;;2.30;;
48613;SDS011;34408;51.426;5.444;2022-09-03T12:50:17;4.30;;;1.40;;
48613;SDS011;34408;51.426;5.444;2022-09-03T12:52:46;2.60;;;1.52;;
48613;SDS011;34408;51.426;5.444;2022-09-03T12:55:20;2.30;;;1.52;;
48613;SDS011;34408;51.426;5.444;2022-09-03T12:57:55;5.78;;;1.60;;
48613;SDS011;34408;51.426;5.444;2022-09-03T13:00:29;6.47;;;2.25;;
48613;SDS011;34408;51.426;5.444;2022-09-03T13:03:03;12.63;;;4.05;;
48613;SDS011;34408;51.426;5.444;2022-09-03T13:05:39;13.35;;;2.42;;
48613;SDS011;34408;51.426;5.444;2022-09-03T13:08:12;6.15;;;1.83;;
48613;SDS011;34408;51.426;5.444;2022-09-03T13:10:44;8.40;;;1.85;;
48613;SDS011;34408;51.426;5.444;2022-09-03T13:13:20;6.82;;;2.03;;
48613;SDS011;34408;51.426;5.444;2022-09-03T13:16:10;7.95;;;2.08;;
48613;SDS011;34408;51.426;5.444;2022-09-03T13:18:59;5.00;;;1.88;;
48613;SDS011;34408;51.426;5.444;2022-09-03T13:21:34;3.57;;;1.77;;
48613;SDS011;34408;51.426;5.444;2022-09-03T13:24:15;6.05;;;2.05;;
48613;SDS011;34408;51.426;5.444;2022-09-03T13:26:56;6.65;;;1.70;;
48613;SDS011;34408;51.426;5.444;2022-09-03T13:29:36;7.45;;;2.30;;
48613;SDS011;34408;51.426;5.444;2022-09-03T13:32:14;4.85;;;2.03;;
48613;SDS011;34408;51.426;5.444;2022-09-03T13:34:51;4.88;;;2.00;;
48613;SDS011;34408;51.426;5.444;2022-09-03T13:37:25;6.38;;;2.00;;
48613;SDS011;34408;51.426;5.444;2022-09-03T13:39:59;3.67;;;1.55;;
48613;SDS011;34408;51.426;5.444;2022-09-03T13:42:36;6.10;;;2.05;;
48613;SDS011;34408;51.426;5.444;2022-09-03T13:45:10;5.68;;;2.42;;
48613;SDS011;34408;51.426;5.444;2022-09-03T13:47:47;3.13;;;1.83;;
48613;SDS011;34408;51.426;5.444;2022-09-03T13:50:38;2.60;;;1.60;;
48613;SDS011;34408;51.426;5.444;2022-09-03T13:53:13;3.55;;;1.98;;
48613;SDS011;34408;51.426;5.444;2022-09-03T13:55:49;4.25;;;1.40;;
48613;SDS011;34408;51.426;5.444;2022-09-03T13:58:23;4.07;;;1.88;;
48613;SDS011;34408;51.426;5.444;2022-09-03T14:01:03;4.10;;;1.55;;
48613;SDS011;34408;51.426;5.444;2022-09-03T14:03:42;2.55;;;1.50;;
48613;SDS011;34408;51.426;5.444;2022-09-03T14:06:19;13.65;;;4.70;;
48613;SDS011;34408;51.426;5.444;2022-09-03T14:08:58;3.03;;;1.50;;
48613;SDS011;34408;51.426;5.444;2022-09-03T14:11:34;3.20;;;1.70;;
48613;SDS011;34408;51.426;5.444;2022-09-03T14:14:15;4.20;;;2.20;;
48613;SDS011;34408;51.426;5.444;2022-09-03T14:16:56;6.28;;;1.98;;
48613;SDS011;34408;51.426;5.444;2022-09-03T14:19:31;2.70;;;1.60;;
48613;SDS011;34408;51.426;5.444;2022-09-03T14:22:07;6.90;;;2.53;;
48613;SDS011;34408;51.426;5.444;2022-09-03T14:24:43;4.40;;;1.98;;
48613;SDS011;34408;51.426;5.444;2022-09-03T14:27:22;4.95;;;2.17;;
48613;SDS011;34408;51.426;5.444;2022-09-03T14:29:52;5.25;;;1.73;;
48613;SDS011;34408;51.426;5.444;2022-09-03T14:32:28;5.18;;;2.00;;
48613;SDS011;34408;51.426;5.444;2022-09-03T14:35:11;3.17;;;1.75;;
48613;SDS011;34408;51.426;5.444;2022-09-03T14:37:57;3.00;;;1.63;;
48613;SDS011;34408;51.426;5.444;2022-09-03T14:40:52;3.63;;;1.88;;
48613;SDS011;34408;51.426;5.444;2022-09-03T14:43:33;3.30;;;1.92;;
48613;SDS011;34408;51.426;5.444;2022-09-03T14:46:21;4.80;;;1.75;;
48613;SDS011;34408;51.426;5.444;2022-09-03T14:49:03;3.90;;;2.25;;
48613;SDS011;34408;51.426;5.444;2022-09-03T14:51:49;3.55;;;1.90;;
48613;SDS011;34408;51.426;5.444;2022-09-03T14:54:33;2.42;;;1.63;;
48613;SDS011;34408;51.426;5.444;2022-09-03T14:57:16;3.90;;;2.00;;
48613;SDS011;34408;51.426;5.444;2022-09-03T15:00:06;3.90;;;1.60;;
48613;SDS011;34408;51.426;5.444;2022-09-03T15:05:47;2.80;;;1.50;;
48613;SDS011;34408;51.426;5.444;2022-09-03T15:08:25;3.33;;;1.77;;
48613;SDS011;34408;51.426;5.444;2022-09-03T15:11:12;6.53;;;1.80;;
48613;SDS011;34408;51.426;5.444;2022-09-03T15:13:45;1.65;;;1.48;;
48613;SDS011;34408;51.426;5.444;2022-09-03T15:16:19;3.22;;;1.70;;
48613;SDS011;34408;51.426;5.444;2022-09-03T15:19:08;3.67;;;1.40;;
48613;SDS011;34408;51.426;5.444;2022-09-03T15:21:48;2.28;;;1.58;;
48613;SDS011;34408;51.426;5.444;2022-09-03T15:24:31;4.28;;;2.30;;
48613;SDS011;34408;51.426;5.444;2022-09-03T15:27:17;2.78;;;1.70;;
48613;SDS011;34408;51.426;5.444;2022-09-03T15:30:00;1.60;;;1.50;;
48613;SDS011;34408;51.426;5.444;2022-09-03T15:35:35;3.08;;;1.60;;